createdAt,value
2023-02-14T00:01:09.952Z,3.28
2023-02-14T00:03:38.442Z,3.29
2023-02-14T00:06:09.652Z,3.29
2023-02-14T00:08:38.886Z,3.30
2023-02-14T00:11:05.726Z,3.31
2023-02-14T00:13:32.662Z,3.30
2023-02-14T00:15:59.426Z,3.29
2023-02-14T00:18:50.508Z,3.30
2023-02-14T00:21:17.248Z,3.31
2023-02-14T00:23:44.438Z,3.31
2023-02-14T00:26:14.479Z,3.32
2023-02-14T00:28:42.279Z,3.33
2023-02-14T00:31:09.088Z,3.34
2023-02-14T00:33:36.027Z,3.34
2023-02-14T00:36:04.132Z,3.36
2023-02-14T00:38:35.972Z,3.37
2023-02-14T00:41:02.785Z,3.37
2023-02-14T00:43:29.525Z,3.38
2023-02-14T00:45:57.553Z,3.39
2023-02-14T00:48:24.544Z,3.40
2023-02-14T00:50:51.198Z,3.42
2023-02-14T00:53:18.121Z,3.43
2023-02-14T00:55:45.982Z,3.43
2023-02-14T00:58:12.656Z,3.44
2023-02-14T01:00:40.088Z,3.46
2023-02-14T01:03:07.609Z,3.47
2023-02-14T01:05:34.628Z,3.48
2023-02-14T01:08:04.093Z,3.48
2023-02-14T01:10:31.192Z,3.48
2023-02-14T01:12:59.669Z,3.49
2023-02-14T01:15:28.097Z,3.49
2023-02-14T01:18:00.262Z,3.49
2023-02-14T01:20:27.568Z,3.48
2023-02-14T01:22:54.463Z,3.49
2023-02-14T01:25:21.350Z,3.50
2023-02-14T01:27:48.511Z,3.51
2023-02-14T01:30:15.572Z,3.52
2023-02-14T01:32:42.396Z,3.52
2023-02-14T01:35:17.501Z,3.52
2023-02-14T01:37:48.482Z,3.53
2023-02-14T01:40:15.461Z,3.54
2023-02-14T01:42:43.371Z,3.54
2023-02-14T01:45:17.960Z,3.54
2023-02-14T01:47:46.231Z,3.53
2023-02-14T01:50:21.871Z,3.53
2023-02-14T01:52:57.122Z,3.53
2023-02-14T01:55:26.207Z,3.54
2023-02-14T01:58:17.079Z,3.55
2023-02-14T02:00:57.048Z,3.55
2023-02-14T02:03:39.173Z,3.55
2023-02-14T02:06:27.965Z,3.54
2023-02-14T02:09:05.228Z,3.53
2023-02-14T02:11:32.229Z,3.52
2023-02-14T02:14:03.997Z,3.54
2023-02-14T02:16:55.031Z,3.55
2023-02-14T02:19:21.883Z,3.55
2023-02-14T02:21:54.525Z,3.54
2023-02-14T02:24:23.956Z,3.54
2023-02-14T02:26:57.319Z,3.54
2023-02-14T02:29:40.518Z,3.55
2023-02-14T02:32:38.768Z,3.55
2023-02-14T02:35:15.809Z,3.53
2023-02-14T02:37:46.234Z,3.53
2023-02-14T02:40:31.207Z,3.53
2023-02-14T02:43:15.451Z,3.53
2023-02-14T02:46:26.327Z,3.54
2023-02-14T02:49:07.977Z,3.53
2023-02-14T02:51:57.684Z,3.54
2023-02-14T02:54:31.373Z,3.55
2023-02-14T02:56:59.120Z,3.56
2023-02-14T02:59:31.254Z,3.56
2023-02-14T03:02:25.139Z,3.56
2023-02-14T03:04:55.498Z,3.56
2023-02-14T03:07:35.458Z,3.55
2023-02-14T03:10:12.366Z,3.55
2023-02-14T03:12:57.971Z,3.56
2023-02-14T03:15:52.384Z,3.56
2023-02-14T03:18:28.762Z,3.56
2023-02-14T03:21:10.177Z,3.56
2023-02-14T03:23:44.877Z,3.54
2023-02-14T03:26:21.576Z,3.54
2023-02-14T03:28:54.537Z,3.55
2023-02-14T03:31:29.263Z,3.55
2023-02-14T03:33:59.924Z,3.52
2023-02-14T03:36:41.925Z,3.51
2023-02-14T03:39:15.696Z,3.50
2023-02-14T03:41:56.650Z,3.49
2023-02-14T03:44:25.331Z,3.47
2023-02-14T03:46:53.801Z,3.46
2023-02-14T03:49:23.318Z,3.47
2023-02-14T03:51:50.631Z,3.48
2023-02-14T03:54:17.373Z,3.48
2023-02-14T03:56:46.741Z,3.49
2023-02-14T03:59:15.203Z,3.49
2023-02-14T04:01:53.054Z,3.48
2023-02-14T04:04:22.094Z,3.48
2023-02-14T04:06:48.886Z,3.43
2023-02-14T04:09:16.044Z,3.41
2023-02-14T04:11:45.930Z,3.39
2023-02-14T04:14:13.466Z,3.37
2023-02-14T04:16:58.900Z,3.34
2023-02-14T04:19:26.519Z,3.30
2023-02-14T04:21:53.409Z,3.26
2023-02-14T04:24:20.329Z,3.22
2023-02-14T04:27:06.266Z,3.17
2023-02-14T04:29:33.921Z,3.12
2023-02-14T04:32:00.864Z,3.10
2023-02-14T04:34:27.779Z,3.09
2023-02-14T04:36:54.833Z,3.07
2023-02-14T04:39:21.469Z,3.04
2023-02-14T04:41:48.104Z,3.00
2023-02-14T04:44:15.490Z,2.98
2023-02-14T04:46:42.206Z,2.98
2023-02-14T04:49:09.079Z,2.98
2023-02-14T04:51:36.094Z,2.98
2023-02-14T04:54:02.864Z,2.98
2023-02-14T04:56:30.054Z,2.96
2023-02-14T04:58:57.137Z,2.96
2023-02-14T05:01:24.066Z,2.97
2023-02-14T05:03:50.699Z,2.97
2023-02-14T05:06:17.499Z,2.97
2023-02-14T05:08:44.328Z,2.98
2023-02-14T05:11:11.797Z,2.99
2023-02-14T05:13:38.928Z,3.00
2023-02-14T05:16:08.184Z,3.00
2023-02-14T05:18:35.162Z,3.01
2023-02-14T05:21:02.577Z,3.02
2023-02-14T05:23:29.664Z,3.02
2023-02-14T05:25:56.308Z,3.03
2023-02-14T05:28:23.754Z,3.03
2023-02-14T05:30:51.040Z,3.04
2023-02-14T05:33:19.689Z,3.05
2023-02-14T05:35:46.690Z,3.06
2023-02-14T05:38:14.000Z,3.07
2023-02-14T05:40:40.949Z,3.08
2023-02-14T05:43:08.528Z,3.09
2023-02-14T05:45:38.506Z,3.09
2023-02-14T05:48:05.886Z,3.09
2023-02-14T05:50:33.178Z,3.10
2023-02-14T05:53:00.372Z,3.12
2023-02-14T05:55:27.118Z,3.13
2023-02-14T05:57:53.887Z,3.14
2023-02-14T06:00:23.506Z,3.16
2023-02-14T06:02:51.235Z,3.17
2023-02-14T06:05:19.563Z,3.18
2023-02-14T06:07:50.072Z,3.20
2023-02-14T06:10:18.229Z,3.24
2023-02-14T06:12:46.229Z,3.26
2023-02-14T06:15:14.937Z,3.31
2023-02-14T06:17:42.310Z,3.33
2023-02-14T06:20:09.183Z,3.37
2023-02-14T06:22:45.587Z,3.39
2023-02-14T06:25:12.828Z,3.39
2023-02-14T06:27:41.141Z,3.17
2023-02-14T06:30:10.853Z,3.01
2023-02-14T06:32:38.645Z,2.98
2023-02-14T06:35:05.973Z,2.97
2023-02-14T06:37:33.657Z,2.97
2023-02-14T06:40:01.281Z,2.97
2023-02-14T06:42:28.010Z,2.97
2023-02-14T06:44:54.860Z,2.98
2023-02-14T06:47:21.802Z,2.99
2023-02-14T06:49:48.594Z,2.99
2023-02-14T06:52:15.231Z,3.00
2023-02-14T06:54:42.081Z,3.01
2023-02-14T06:57:09.692Z,3.02
2023-02-14T06:59:36.570Z,3.05
2023-02-14T07:02:03.268Z,3.06
2023-02-14T07:11:28.750Z,3.21
2023-02-14T07:14:02.564Z,3.24
2023-02-14T07:16:35.619Z,3.30
2023-02-14T07:19:04.572Z,3.32
2023-02-14T07:21:33.885Z,3.36
2023-02-14T07:24:02.148Z,3.39
2023-02-14T07:26:33.692Z,3.43
2023-02-14T07:29:03.267Z,3.46
2023-02-14T07:31:31.416Z,3.47
2023-02-14T07:34:03.092Z,3.48
2023-02-14T07:36:31.452Z,3.51
2023-02-14T07:38:59.810Z,3.52
2023-02-14T07:41:27.806Z,3.53
2023-02-14T07:43:57.885Z,3.56
2023-02-14T07:46:28.150Z,3.61
2023-02-14T07:48:56.860Z,3.65
2023-02-14T07:51:25.382Z,3.72
2023-02-14T07:53:53.699Z,3.79
2023-02-14T07:56:22.211Z,3.86
2023-02-14T07:58:50.708Z,3.92
2023-02-14T08:01:21.136Z,3.99
2023-02-14T08:03:49.775Z,4.05
2023-02-14T08:06:18.617Z,4.10
2023-02-14T08:08:47.096Z,4.15
2023-02-14T08:11:39.602Z,4.19
2023-02-14T08:14:10.155Z,4.21
2023-02-14T08:16:39.288Z,4.22
2023-02-14T08:19:07.430Z,4.22
2023-02-14T08:21:35.989Z,4.23
2023-02-14T08:24:04.549Z,4.25
2023-02-14T08:26:32.671Z,4.22
2023-02-14T08:29:01.724Z,4.22
2023-02-14T08:31:35.674Z,4.23
2023-02-14T08:34:05.327Z,4.24
2023-02-14T08:36:35.033Z,4.26
2023-02-14T08:39:04.266Z,4.29
2023-02-14T08:41:33.353Z,4.32
2023-02-14T08:44:01.900Z,4.36
2023-02-14T08:46:31.023Z,4.40
2023-02-14T08:48:59.621Z,4.43
2023-02-14T08:51:28.431Z,4.45
2023-02-14T08:53:56.640Z,4.49
2023-02-14T08:56:25.150Z,4.51
2023-02-14T08:58:54.649Z,4.54
2023-02-14T09:01:22.837Z,4.57
2023-02-14T09:03:54.340Z,4.63
2023-02-14T09:06:22.548Z,4.70
2023-02-14T09:08:51.699Z,4.74
2023-02-14T09:11:24.501Z,4.76
2023-02-14T09:13:53.626Z,4.78
2023-02-14T09:16:22.464Z,4.80
2023-02-14T09:18:52.728Z,4.79
2023-02-14T09:21:23.217Z,4.77
2023-02-14T09:24:11.087Z,4.74
2023-02-14T09:26:42.511Z,4.71
2023-02-14T09:29:13.576Z,4.69
2023-02-14T09:31:41.990Z,4.66
2023-02-14T09:34:10.169Z,4.65
2023-02-14T09:36:38.478Z,4.65
2023-02-14T09:39:06.869Z,4.65
2023-02-14T09:41:46.966Z,4.63
2023-02-14T09:44:29.585Z,4.61
2023-02-14T09:47:08.042Z,4.59
2023-02-14T09:49:38.322Z,4.58
2023-02-14T09:52:07.866Z,4.59
2023-02-14T09:54:36.600Z,4.61
2023-02-14T09:57:17.750Z,4.71
2023-02-14T09:59:52.816Z,4.72
2023-02-14T10:02:28.995Z,4.75
2023-02-14T10:05:15.501Z,4.65
2023-02-14T10:08:20.565Z,4.67
2023-02-14T10:11:20.966Z,4.69
2023-02-14T10:13:52.099Z,4.73
2023-02-14T10:16:29.608Z,4.76
2023-02-14T10:19:03.925Z,4.76
2023-02-14T10:21:36.219Z,4.78
2023-02-14T10:24:14.850Z,4.85
2023-02-14T10:26:43.025Z,4.90
2023-02-14T10:29:15.120Z,4.92
2023-02-14T10:31:58.162Z,4.92
2023-02-14T10:34:51.102Z,4.89
2023-02-14T10:37:26.876Z,4.87
2023-02-14T10:40:20.694Z,4.90
2023-02-14T10:42:52.294Z,4.91
2023-02-14T10:45:29.247Z,4.89
2023-02-14T10:48:16.800Z,4.84
2023-02-14T10:51:16.948Z,4.82
2023-02-14T10:53:54.049Z,4.79
2023-02-14T10:56:43.555Z,4.74
2023-02-14T10:59:22.003Z,4.68
2023-02-14T11:01:52.125Z,4.63
2023-02-14T11:04:47.581Z,4.57
2023-02-14T11:07:29.884Z,4.49
2023-02-14T11:09:59.767Z,4.43
2023-02-14T11:12:35.708Z,4.40
2023-02-14T11:15:14.406Z,4.39
2023-02-14T11:17:44.063Z,4.35
2023-02-14T11:20:18.680Z,4.30
2023-02-14T11:22:51.271Z,4.27
2023-02-14T11:33:37.082Z,4.29
2023-02-14T11:36:04.804Z,4.26
2023-02-14T11:38:35.202Z,4.27
2023-02-14T11:41:02.319Z,4.28
2023-02-14T11:43:40.335Z,4.28
2023-02-14T11:46:19.730Z,4.23
2023-02-14T11:49:04.413Z,4.18
2023-02-14T11:51:32.723Z,4.13
2023-02-14T11:54:04.182Z,4.12
2023-02-14T11:57:01.335Z,4.12
2023-02-14T11:59:41.343Z,4.10
2023-02-14T12:02:21.004Z,4.04
2023-02-14T12:04:49.420Z,3.97
2023-02-14T12:07:26.430Z,3.94
2023-02-14T12:10:05.486Z,3.94
2023-02-14T12:12:32.735Z,3.94
2023-02-14T12:15:22.840Z,4.01
2023-02-14T12:17:53.113Z,4.18
2023-02-14T12:20:25.792Z,4.32
2023-02-14T12:23:01.111Z,4.36
2023-02-14T12:25:39.855Z,4.34
2023-02-14T12:28:11.673Z,4.44
2023-02-14T12:30:38.534Z,4.55
2023-02-14T12:33:25.609Z,4.60
2023-02-14T12:36:13.881Z,4.59
2023-02-14T12:39:03.641Z,4.51
2023-02-14T12:41:39.400Z,4.43
2023-02-14T12:44:06.606Z,4.35
2023-02-14T12:46:47.064Z,4.28
2023-02-14T12:50:11.050Z,4.18
2023-02-14T12:52:44.084Z,4.06
2023-02-14T12:55:49.160Z,4.00
2023-02-14T12:58:35.481Z,3.99
2023-02-14T13:01:39.072Z,3.97
2023-02-14T13:04:12.358Z,3.95
2023-02-14T13:06:47.936Z,3.97
2023-02-14T13:09:47.739Z,4.00
2023-02-14T13:12:36.384Z,4.00
2023-02-14T13:15:12.544Z,3.97
2023-02-14T13:17:49.557Z,3.93
2023-02-14T13:20:37.517Z,3.91
2023-02-14T13:23:09.687Z,3.89
2023-02-14T13:25:41.766Z,3.89
2023-02-14T13:28:12.354Z,3.89
2023-02-14T13:30:42.443Z,3.87
2023-02-14T13:33:39.720Z,3.87
2023-02-14T13:36:08.541Z,3.87
2023-02-14T13:38:43.664Z,3.85
2023-02-14T13:41:12.105Z,3.82
2023-02-14T13:44:00.911Z,3.81
2023-02-14T13:46:33.934Z,3.81
2023-02-14T13:49:24.995Z,3.80
2023-02-14T13:52:02.997Z,3.79
2023-02-14T13:54:44.438Z,3.79
2023-02-14T13:57:31.900Z,3.77
2023-02-14T14:00:17.045Z,3.75
2023-02-14T14:02:51.237Z,3.73
2023-02-14T14:05:30.140Z,3.69
2023-02-14T14:08:15.586Z,3.66
2023-02-14T14:10:44.242Z,3.63
2023-02-14T14:13:39.611Z,3.59
2023-02-14T14:16:18.933Z,3.56
2023-02-14T14:18:45.579Z,3.55
2023-02-14T14:21:22.567Z,3.54
2023-02-14T14:24:13.050Z,3.51
2023-02-14T14:26:42.030Z,3.49
2023-02-14T14:29:10.801Z,3.46
2023-02-14T14:31:37.727Z,3.44
2023-02-14T14:34:04.751Z,3.43
2023-02-14T14:36:32.217Z,3.43
2023-02-14T14:39:02.119Z,3.42
2023-02-14T14:41:29.140Z,3.40
2023-02-14T14:44:01.598Z,3.37
2023-02-14T14:46:28.646Z,3.34
2023-02-14T14:48:56.124Z,3.32
2023-02-14T14:51:33.119Z,3.29
2023-02-14T14:54:17.691Z,3.25
2023-02-14T14:57:01.212Z,3.22
2023-02-14T14:59:35.134Z,3.18
2023-02-14T15:02:23.253Z,3.14
2023-02-14T15:04:49.997Z,3.11
2023-02-14T15:07:29.636Z,3.08
2023-02-14T15:09:56.525Z,3.04
2023-02-14T15:12:42.126Z,3.00
2023-02-14T15:15:10.777Z,2.97
2023-02-14T15:17:37.790Z,2.93
2023-02-14T15:20:07.624Z,2.91
2023-02-14T15:22:40.868Z,2.90
2023-02-14T15:25:10.389Z,2.86
2023-02-14T15:27:41.099Z,2.85
2023-02-14T15:30:23.115Z,2.83
2023-02-14T15:32:50.045Z,2.82
2023-02-14T15:35:18.437Z,2.81
2023-02-14T15:37:45.247Z,2.79
2023-02-14T15:40:20.070Z,2.78
2023-02-14T15:42:46.963Z,2.77
2023-02-14T15:45:28.147Z,2.76
2023-02-14T15:48:14.162Z,2.74
2023-02-14T15:50:52.086Z,2.71
2023-02-14T15:53:18.956Z,2.68
2023-02-14T15:55:49.056Z,2.65
2023-02-14T15:58:26.150Z,2.62
2023-02-14T16:00:56.161Z,2.60
2023-02-14T16:03:27.579Z,2.57
2023-02-14T16:05:54.745Z,2.55
2023-02-14T16:08:28.879Z,2.53
2023-02-14T16:11:08.182Z,2.52
2023-02-14T16:13:36.472Z,2.50
2023-02-14T16:16:06.956Z,2.49
2023-02-14T16:18:37.909Z,2.47
2023-02-14T16:21:18.890Z,2.45
2023-02-14T16:23:46.772Z,2.44
2023-02-14T16:26:13.661Z,2.41
2023-02-14T16:28:43.245Z,2.40
2023-02-14T16:31:13.159Z,2.40
2023-02-14T16:33:40.160Z,2.41
2023-02-14T16:36:28.407Z,2.40
2023-02-14T16:38:57.620Z,2.38
2023-02-14T16:41:26.613Z,2.38
2023-02-14T16:43:54.123Z,2.37
2023-02-14T16:46:32.027Z,2.37
2023-02-14T16:48:59.415Z,2.37
2023-02-14T16:51:31.777Z,2.39
2023-02-14T16:53:59.846Z,2.38
2023-02-14T16:56:29.435Z,2.36
2023-02-14T16:58:59.906Z,2.35
2023-02-14T17:01:27.029Z,2.34
2023-02-14T17:03:55.079Z,2.34
2023-02-14T17:06:22.662Z,2.34
2023-02-14T17:08:54.501Z,2.33
2023-02-14T17:11:21.381Z,2.33
2023-02-14T17:13:48.417Z,2.32
2023-02-14T17:16:15.920Z,2.31
2023-02-14T17:18:47.122Z,2.29
2023-02-14T17:21:14.528Z,2.28
2023-02-14T17:23:41.407Z,2.28
2023-02-14T17:26:09.587Z,2.28
2023-02-14T17:28:36.733Z,2.27
2023-02-14T17:31:05.617Z,2.26
2023-02-14T17:33:33.028Z,2.26
2023-02-14T17:36:07.443Z,2.26
2023-02-14T17:38:35.301Z,2.27
2023-02-14T17:41:30.436Z,2.27
2023-02-14T17:44:04.877Z,2.27
2023-02-14T17:46:35.061Z,2.26
2023-02-14T17:49:03.299Z,2.25
2023-02-14T17:51:30.348Z,2.23
2023-02-14T17:53:58.869Z,2.21
2023-02-14T17:56:27.361Z,2.19
2023-02-14T17:58:59.201Z,2.19
2023-02-14T18:01:30.785Z,2.17
2023-02-14T18:03:57.779Z,2.16
2023-02-14T18:06:30.618Z,2.14
2023-02-14T18:09:04.874Z,2.12
2023-02-14T18:11:37.624Z,2.11
2023-02-14T18:14:06.793Z,2.08
2023-02-14T18:16:39.342Z,2.06
2023-02-14T18:19:09.605Z,2.05
2023-02-14T18:21:39.551Z,2.05
2023-02-14T18:24:06.677Z,2.06
2023-02-14T18:26:39.918Z,2.06
2023-02-14T18:29:07.491Z,2.04
2023-02-14T18:31:36.555Z,2.03
2023-02-14T18:34:10.196Z,2.01
2023-02-14T18:36:41.783Z,2.00
2023-02-14T18:39:16.831Z,1.98
2023-02-14T18:41:44.315Z,1.99
2023-02-14T18:44:13.228Z,2.00
2023-02-14T18:46:42.052Z,2.00
2023-02-14T18:49:09.678Z,2.00
2023-02-14T18:51:44.627Z,2.01
2023-02-14T18:54:11.644Z,2.02
2023-02-14T18:56:38.686Z,2.02
2023-02-14T18:59:07.867Z,2.01
2023-02-14T19:01:39.188Z,2.01
2023-02-14T19:04:08.138Z,2.01
2023-02-14T19:06:40.281Z,2.03
2023-02-14T19:09:17.809Z,2.02
2023-02-14T19:11:53.505Z,2.02
2023-02-14T19:14:21.298Z,2.01
2023-02-14T19:16:54.480Z,2.01
2023-02-14T19:19:22.676Z,2.00
2023-02-14T19:21:52.388Z,2.01
2023-02-14T19:24:27.650Z,2.00
2023-02-14T19:26:57.153Z,1.99
2023-02-14T19:29:24.879Z,1.98
2023-02-14T19:31:56.450Z,1.98
2023-02-14T19:34:29.259Z,1.99
2023-02-14T19:37:00.172Z,1.99
2023-02-14T19:39:31.775Z,1.99
2023-02-14T19:42:04.576Z,1.98
2023-02-14T19:44:32.229Z,1.97
2023-02-14T19:47:04.157Z,1.97
2023-02-14T19:49:37.964Z,1.97
2023-02-14T19:52:17.230Z,1.96
2023-02-14T19:54:57.910Z,1.95
2023-02-14T19:57:25.793Z,1.95
2023-02-14T19:59:56.770Z,1.95
2023-02-14T20:02:25.089Z,1.93
2023-02-14T20:05:03.040Z,1.91
2023-02-14T20:07:36.063Z,1.90
2023-02-14T20:10:12.348Z,1.87
2023-02-14T20:12:43.089Z,1.84
2023-02-14T20:15:13.865Z,1.80
2023-02-14T20:17:45.095Z,1.77
2023-02-14T20:20:14.548Z,1.72
2023-02-14T20:22:51.573Z,1.68
2023-02-14T20:25:22.179Z,1.65
2023-02-14T20:27:54.085Z,1.62
2023-02-14T20:30:22.679Z,1.60
2023-02-14T20:32:51.090Z,1.57
2023-02-14T20:35:18.966Z,1.54
2023-02-14T20:37:55.264Z,1.51
2023-02-14T20:40:26.484Z,1.48
2023-02-14T20:43:03.552Z,1.45
2023-02-14T20:45:32.566Z,1.41
2023-02-14T20:48:03.582Z,1.38
2023-02-14T20:50:37.432Z,1.35
2023-02-14T20:53:06.920Z,1.32
2023-02-14T20:55:41.240Z,1.29
2023-02-14T20:58:08.320Z,1.25
2023-02-14T21:00:36.654Z,1.23
2023-02-14T21:03:03.428Z,1.21
2023-02-14T21:05:30.862Z,1.20
2023-02-14T21:07:57.729Z,1.19
2023-02-14T21:10:24.675Z,1.18
2023-02-14T21:12:53.789Z,1.15
2023-02-14T21:15:22.639Z,1.13
2023-02-14T21:17:51.436Z,1.13
2023-02-14T21:20:19.629Z,1.14
2023-02-14T21:22:47.507Z,1.14
2023-02-14T21:25:14.362Z,1.13
2023-02-14T21:27:42.030Z,1.14
2023-02-14T21:30:09.489Z,1.13
2023-02-14T21:32:37.329Z,1.13
2023-02-14T21:35:05.277Z,1.13
2023-02-14T21:37:31.945Z,1.13
2023-02-14T21:39:58.577Z,1.13
2023-02-14T21:42:26.374Z,1.15
2023-02-14T21:45:12.095Z,1.17
2023-02-14T21:47:39.366Z,1.18
2023-02-14T21:50:25.819Z,1.18
2023-02-14T21:52:53.081Z,1.20
2023-02-14T21:55:20.061Z,1.22
2023-02-14T21:57:46.648Z,1.23
2023-02-14T22:00:14.586Z,1.25
2023-02-14T22:02:41.681Z,1.26
2023-02-14T22:05:09.133Z,1.27
2023-02-14T22:07:36.027Z,1.29
2023-02-14T22:10:02.800Z,1.30
2023-02-14T22:12:29.975Z,1.31
2023-02-14T22:14:59.670Z,1.32
2023-02-14T22:17:27.577Z,1.33
2023-02-14T22:19:54.778Z,1.35
2023-02-14T22:22:21.768Z,1.35
2023-02-14T22:24:49.166Z,1.37
2023-02-14T22:27:15.817Z,1.38
2023-02-14T22:29:45.419Z,1.39
2023-02-14T22:32:12.374Z,1.40
2023-02-14T22:34:39.229Z,1.40
2023-02-14T22:37:06.203Z,1.41
2023-02-14T22:39:33.465Z,1.41
2023-02-14T22:42:06.198Z,1.41
2023-02-14T22:44:33.578Z,1.43
2023-02-14T22:47:00.836Z,1.43
2023-02-14T22:49:28.386Z,1.43
2023-02-14T22:51:57.339Z,1.43
2023-02-14T22:54:25.451Z,1.44
2023-02-14T22:56:52.416Z,1.42
2023-02-14T22:59:24.704Z,1.42
2023-02-14T23:01:53.672Z,1.42
2023-02-14T23:04:22.567Z,1.45
2023-02-14T23:06:50.784Z,1.45
2023-02-14T23:09:17.926Z,1.45
2023-02-14T23:11:45.246Z,1.48
2023-02-14T23:14:31.450Z,1.48
2023-02-14T23:17:13.965Z,1.48
2023-02-14T23:20:00.288Z,1.47
2023-02-14T23:22:31.408Z,1.46
2023-02-14T23:24:59.901Z,1.47
2023-02-14T23:27:31.536Z,1.47
2023-02-14T23:29:59.028Z,1.47
2023-02-14T23:32:26.683Z,1.47
2023-02-14T23:34:54.429Z,1.45
2023-02-14T23:37:21.364Z,1.48
2023-02-14T23:39:50.765Z,1.46
2023-02-14T23:42:17.685Z,1.42
2023-02-14T23:44:44.779Z,1.44
2023-02-14T23:47:12.038Z,1.47
2023-02-14T23:49:39.400Z,1.47
2023-02-14T23:52:07.353Z,1.49
2023-02-14T23:54:34.192Z,1.52
2023-02-14T23:57:00.938Z,1.55
2023-02-14T23:59:27.815Z,1.56
